sensor_id;sensor_type;location;lat;lon;timestamp;noise_LAeq;noise_LA_min;noise_LA_max;noise_LA01;noise_LA95
72736;Laerm;60856;53.238;10.448;2023-05-07T03:39:47;46.57;45.39;49.63;;
72736;Laerm;60856;53.238;10.448;2023-05-07T03:42:12;46.56;45.16;50.49;;
72736;Laerm;60856;53.238;10.448;2023-05-07T03:44:38;46.58;45.30;49.46;;
72736;Laerm;60856;53.238;10.448;2023-05-07T03:47:03;46.58;45.17;49.78;;
72736;Laerm;60856;53.238;10.448;2023-05-07T03:49:29;46.55;45.39;49.74;;
72736;Laerm;60856;53.238;10.448;2023-05-07T03:51:54;46.56;45.19;49.74;;
72736;Laerm;60856;53.238;10.448;2023-05-07T03:54:20;46.58;45.25;49.77;;
72736;Laerm;60856;53.238;10.448;2023-05-07T03:56:45;46.56;45.15;49.60;;
72736;Laerm;60856;53.238;10.448;2023-05-07T03:59:11;46.54;45.29;49.71;;
72736;Laerm;60856;53.238;10.448;2023-05-07T04:01:37;46.58;45.13;49.61;;
72736;Laerm;60856;53.238;10.448;2023-05-07T04:04:02;46.57;45.23;49.59;;
72736;Laerm;60856;53.238;10.448;2023-05-07T04:06:28;46.56;45.30;49.66;;
72736;Laerm;60856;53.238;10.448;2023-05-07T04:08:53;46.58;45.35;49.79;;
72736;Laerm;60856;53.238;10.448;2023-05-07T04:11:18;46.58;45.40;49.90;;
72736;Laerm;60856;53.238;10.448;2023-05-07T04:13:43;46.57;45.28;49.58;;
72736;Laerm;60856;53.238;10.448;2023-05-07T04:16:09;46.55;45.32;49.45;;
72736;Laerm;60856;53.238;10.448;2023-05-07T04:18:34;46.57;45.37;49.75;;
72736;Laerm;60856;53.238;10.448;2023-05-07T04:20:59;46.57;45.25;49.85;;
72736;Laerm;60856;53.238;10.448;2023-05-07T04:23:25;46.58;45.20;49.66;;
72736;Laerm;60856;53.238;10.448;2023-05-07T04:25:50;46.57;45.33;49.42;;
72736;Laerm;60856;53.238;10.448;2023-05-07T04:28:15;46.56;45.40;49.60;;
72736;Laerm;60856;53.238;10.448;2023-05-07T04:30:41;46.56;45.30;49.44;;
72736;Laerm;60856;53.238;10.448;2023-05-07T04:33:06;46.58;45.27;49.79;;
72736;Laerm;60856;53.238;10.448;2023-05-07T04:35:31;46.57;45.32;49.68;;
72736;Laerm;60856;53.238;10.448;2023-05-07T04:37:57;46.57;45.33;49.58;;
72736;Laerm;60856;53.238;10.448;2023-05-07T04:40:22;46.59;45.40;49.62;;
72736;Laerm;60856;53.238;10.448;2023-05-07T04:42:47;46.58;45.41;49.64;;
72736;Laerm;60856;53.238;10.448;2023-05-07T04:45:12;46.59;45.35;49.96;;
72736;Laerm;60856;53.238;10.448;2023-05-07T04:47:38;46.61;45.43;49.80;;
72736;Laerm;60856;53.238;10.448;2023-05-07T04:50:03;46.57;45.31;49.68;;
72736;Laerm;60856;53.238;10.448;2023-05-07T04:52:28;46.57;45.29;49.44;;
72736;Laerm;60856;53.238;10.448;2023-05-07T04:54:54;46.58;45.25;49.59;;
72736;Laerm;60856;53.238;10.448;2023-05-07T04:57:19;46.58;45.43;49.63;;
72736;Laerm;60856;53.238;10.448;2023-05-07T04:59:44;46.59;45.39;49.28;;
72736;Laerm;60856;53.238;10.448;2023-05-07T05:02:10;46.57;45.31;50.55;;
72736;Laerm;60856;53.238;10.448;2023-05-07T05:04:35;46.57;45.24;49.80;;
72736;Laerm;60856;53.238;10.448;2023-05-07T05:07:01;46.58;45.21;49.56;;
72736;Laerm;60856;53.238;10.448;2023-05-07T05:09:28;46.58;45.37;50.03;;
72736;Laerm;60856;53.238;10.448;2023-05-07T05:11:53;46.56;45.34;49.57;;
72736;Laerm;60856;53.238;10.448;2023-05-07T05:14:19;46.57;45.40;49.98;;
72736;Laerm;60856;53.238;10.448;2023-05-07T05:16:44;46.58;45.44;50.42;;
72736;Laerm;60856;53.238;10.448;2023-05-07T05:19:09;46.60;45.29;49.57;;
72736;Laerm;60856;53.238;10.448;2023-05-07T05:21:35;46.58;44.95;49.89;;
72736;Laerm;60856;53.238;10.448;2023-05-07T05:24:00;46.56;45.44;49.58;;
72736;Laerm;60856;53.238;10.448;2023-05-07T05:26:25;46.57;45.33;49.76;;
72736;Laerm;60856;53.238;10.448;2023-05-07T05:28:51;46.58;45.37;49.49;;
72736;Laerm;60856;53.238;10.448;2023-05-07T05:31:16;46.58;45.05;49.55;;
72736;Laerm;60856;53.238;10.448;2023-05-07T05:33:41;46.56;45.31;49.81;;
72736;Laerm;60856;53.238;10.448;2023-05-07T05:36:08;46.56;45.23;49.37;;
72736;Laerm;60856;53.238;10.448;2023-05-07T05:38:34;46.58;45.29;49.92;;
72736;Laerm;60856;53.238;10.448;2023-05-07T05:40:59;46.60;45.22;49.74;;
72736;Laerm;60856;53.238;10.448;2023-05-07T05:43:24;46.59;45.11;49.46;;
72736;Laerm;60856;53.238;10.448;2023-05-07T05:45:50;46.58;45.22;49.87;;
72736;Laerm;60856;53.238;10.448;2023-05-07T05:48:15;46.59;45.12;50.11;;
72736;Laerm;60856;53.238;10.448;2023-05-07T05:50:41;46.58;45.37;50.15;;
72736;Laerm;60856;53.238;10.448;2023-05-07T05:53:07;46.57;45.21;49.91;;
72736;Laerm;60856;53.238;10.448;2023-05-07T05:55:32;46.58;45.24;49.57;;
72736;Laerm;60856;53.238;10.448;2023-05-07T05:57:58;46.57;45.25;50.04;;
72736;Laerm;60856;53.238;10.448;2023-05-07T06:00:23;46.60;45.24;49.72;;
72736;Laerm;60856;53.238;10.448;2023-05-07T06:02:48;46.57;45.22;49.43;;
72736;Laerm;60856;53.238;10.448;2023-05-07T06:05:13;46.58;45.38;50.23;;
72736;Laerm;60856;53.238;10.448;2023-05-07T06:07:39;46.57;45.37;49.81;;
72736;Laerm;60856;53.238;10.448;2023-05-07T06:10:04;46.59;45.43;49.50;;
72736;Laerm;60856;53.238;10.448;2023-05-07T06:12:30;46.58;45.30;49.64;;
72736;Laerm;60856;53.238;10.448;2023-05-07T06:14:55;46.58;45.15;49.83;;
72736;Laerm;60856;53.238;10.448;2023-05-07T06:17:20;46.58;45.31;49.63;;
72736;Laerm;60856;53.238;10.448;2023-05-07T06:19:45;46.57;45.22;49.44;;
72736;Laerm;60856;53.238;10.448;2023-05-07T06:22:10;46.57;45.34;49.35;;
72736;Laerm;60856;53.238;10.448;2023-05-07T06:24:36;46.58;45.33;49.80;;
72736;Laerm;60856;53.238;10.448;2023-05-07T06:27:01;46.57;45.28;50.14;;
72736;Laerm;60856;53.238;10.448;2023-05-07T06:29:26;46.57;45.10;49.64;;
72736;Laerm;60856;53.238;10.448;2023-05-07T06:31:55;46.58;45.31;49.55;;
72736;Laerm;60856;53.238;10.448;2023-05-07T06:34:20;46.57;45.30;49.75;;
72736;Laerm;60856;53.238;10.448;2023-05-07T06:36:45;46.57;45.14;49.65;;
72736;Laerm;60856;53.238;10.448;2023-05-07T06:39:11;46.58;45.30;49.46;;
72736;Laerm;60856;53.238;10.448;2023-05-07T06:41:36;46.59;45.38;49.44;;
72736;Laerm;60856;53.238;10.448;2023-05-07T06:44:02;46.60;45.36;49.55;;
72736;Laerm;60856;53.238;10.448;2023-05-07T06:46:28;46.58;45.27;49.47;;
72736;Laerm;60856;53.238;10.448;2023-05-07T06:48:53;46.59;45.20;50.08;;
72736;Laerm;60856;53.238;10.448;2023-05-07T06:51:18;46.58;45.12;49.85;;
72736;Laerm;60856;53.238;10.448;2023-05-07T06:53:43;46.57;45.36;49.43;;
72736;Laerm;60856;53.238;10.448;2023-05-07T06:56:09;46.58;45.42;49.66;;
72736;Laerm;60856;53.238;10.448;2023-05-07T06:58:34;46.59;45.40;49.37;;
72736;Laerm;60856;53.238;10.448;2023-05-07T07:00:59;46.57;45.32;49.89;;
72736;Laerm;60856;53.238;10.448;2023-05-07T07:03:25;46.57;45.31;49.68;;
72736;Laerm;60856;53.238;10.448;2023-05-07T07:05:53;46.57;45.35;49.48;;
72736;Laerm;60856;53.238;10.448;2023-05-07T07:08:19;46.60;45.12;50.59;;
72736;Laerm;60856;53.238;10.448;2023-05-07T07:10:46;46.59;45.24;49.74;;
72736;Laerm;60856;53.238;10.448;2023-05-07T07:13:11;46.59;45.34;49.96;;
72736;Laerm;60856;53.238;10.448;2023-05-07T07:15:36;46.60;45.23;50.03;;
72736;Laerm;60856;53.238;10.448;2023-05-07T07:18:02;46.58;45.17;49.81;;
72736;Laerm;60856;53.238;10.448;2023-05-07T07:20:27;46.58;45.27;49.69;;
72736;Laerm;60856;53.238;10.448;2023-05-07T07:22:52;46.60;45.34;49.72;;
72736;Laerm;60856;53.238;10.448;2023-05-07T07:25:17;46.57;45.32;49.88;;
72736;Laerm;60856;53.238;10.448;2023-05-07T07:27:43;46.59;45.38;49.69;;
72736;Laerm;60856;53.238;10.448;2023-05-07T07:30:08;46.59;45.39;49.95;;
72736;Laerm;60856;53.238;10.448;2023-05-07T07:32:34;46.58;45.23;49.77;;
72736;Laerm;60856;53.238;10.448;2023-05-07T07:34:59;46.58;45.29;49.62;;
72736;Laerm;60856;53.238;10.448;2023-05-07T07:37:24;46.59;45.29;49.73;;
72736;Laerm;60856;53.238;10.448;2023-05-07T07:39:50;46.57;45.34;49.50;;
72736;Laerm;60856;53.238;10.448;2023-05-07T07:42:15;46.56;45.34;49.59;;
72736;Laerm;60856;53.238;10.448;2023-05-07T07:44:41;46.59;45.39;50.42;;
72736;Laerm;60856;53.238;10.448;2023-05-07T07:47:06;46.58;45.27;49.75;;
72736;Laerm;60856;53.238;10.448;2023-05-07T07:49:31;46.59;45.39;49.53;;
72736;Laerm;60856;53.238;10.448;2023-05-07T07:51:56;46.57;45.34;49.74;;
72736;Laerm;60856;53.238;10.448;2023-05-07T07:54:24;46.59;45.22;50.49;;
72736;Laerm;60856;53.238;10.448;2023-05-07T07:56:49;46.59;45.17;50.77;;
72736;Laerm;60856;53.238;10.448;2023-05-07T07:59:14;46.57;45.39;49.73;;
72736;Laerm;60856;53.238;10.448;2023-05-07T08:01:43;46.59;45.32;49.80;;
72736;Laerm;60856;53.238;10.448;2023-05-07T08:04:09;46.58;45.12;49.65;;
72736;Laerm;60856;53.238;10.448;2023-05-07T08:06:34;46.57;45.35;50.79;;
72736;Laerm;60856;53.238;10.448;2023-05-07T08:08:59;46.57;45.35;50.53;;
72736;Laerm;60856;53.238;10.448;2023-05-07T08:11:25;46.59;45.33;50.11;;
72736;Laerm;60856;53.238;10.448;2023-05-07T08:13:50;46.58;45.22;49.55;;
72736;Laerm;60856;53.238;10.448;2023-05-07T08:16:15;46.60;45.32;50.26;;
72736;Laerm;60856;53.238;10.448;2023-05-07T08:18:41;46.57;45.14;49.62;;
72736;Laerm;60856;53.238;10.448;2023-05-07T08:21:06;46.60;45.19;49.79;;
72736;Laerm;60856;53.238;10.448;2023-05-07T08:23:31;46.57;45.28;49.51;;
72736;Laerm;60856;53.238;10.448;2023-05-07T08:25:57;46.59;45.30;49.81;;
72736;Laerm;60856;53.238;10.448;2023-05-07T08:28:22;46.59;45.40;49.61;;
72736;Laerm;60856;53.238;10.448;2023-05-07T08:30:49;46.58;45.38;49.66;;
72736;Laerm;60856;53.238;10.448;2023-05-07T08:33:14;46.58;45.32;49.62;;
72736;Laerm;60856;53.238;10.448;2023-05-07T08:35:40;46.60;45.27;49.60;;
72736;Laerm;60856;53.238;10.448;2023-05-07T08:38:05;46.59;45.29;49.67;;
72736;Laerm;60856;53.238;10.448;2023-05-07T08:40:31;46.59;45.26;49.70;;
72736;Laerm;60856;53.238;10.448;2023-05-07T08:43:00;46.59;45.08;49.42;;
72736;Laerm;60856;53.238;10.448;2023-05-07T08:45:27;46.60;45.32;49.81;;
72736;Laerm;60856;53.238;10.448;2023-05-07T08:47:55;46.57;45.27;49.34;;
72736;Laerm;60856;53.238;10.448;2023-05-07T08:50:23;46.57;45.30;49.73;;
72736;Laerm;60856;53.238;10.448;2023-05-07T08:52:48;46.59;45.36;49.78;;
72736;Laerm;60856;53.238;10.448;2023-05-07T08:55:13;46.60;45.29;50.19;;
72736;Laerm;60856;53.238;10.448;2023-05-07T08:57:40;46.59;45.21;49.87;;
72736;Laerm;60856;53.238;10.448;2023-05-07T09:00:05;46.58;45.10;49.68;;
72736;Laerm;60856;53.238;10.448;2023-05-07T09:02:32;46.60;45.26;49.75;;
72736;Laerm;60856;53.238;10.448;2023-05-07T09:04:57;46.60;45.26;49.54;;
72736;Laerm;60856;53.238;10.448;2023-05-07T09:07:22;46.59;45.21;49.59;;
72736;Laerm;60856;53.238;10.448;2023-05-07T09:09:48;46.59;45.31;49.42;;
72736;Laerm;60856;53.238;10.448;2023-05-07T09:12:14;46.59;45.18;49.69;;
72736;Laerm;60856;53.238;10.448;2023-05-07T09:14:39;46.59;45.21;50.44;;
72736;Laerm;60856;53.238;10.448;2023-05-07T09:17:04;46.61;45.15;50.07;;
72736;Laerm;60856;53.238;10.448;2023-05-07T09:19:30;46.61;45.35;50.56;;
72736;Laerm;60856;53.238;10.448;2023-05-07T09:22:02;46.59;45.29;49.95;;
72736;Laerm;60856;53.238;10.448;2023-05-07T09:24:28;46.60;45.23;49.76;;
72736;Laerm;60856;53.238;10.448;2023-05-07T09:26:57;46.60;45.31;49.52;;
72736;Laerm;60856;53.238;10.448;2023-05-07T09:29:22;46.59;45.35;49.60;;
72736;Laerm;60856;53.238;10.448;2023-05-07T09:34:35;46.60;45.13;49.73;;
72736;Laerm;60856;53.238;10.448;2023-05-07T09:37:01;46.61;45.18;49.86;;
72736;Laerm;60856;53.238;10.448;2023-05-07T09:39:47;46.57;45.27;49.53;;
72736;Laerm;60856;53.238;10.448;2023-05-07T09:42:12;46.58;45.05;49.66;;
72736;Laerm;60856;53.238;10.448;2023-05-07T09:44:40;46.59;44.98;49.45;;
72736;Laerm;60856;53.238;10.448;2023-05-07T09:47:05;46.59;45.12;50.29;;
72736;Laerm;60856;53.238;10.448;2023-05-07T09:49:30;46.60;45.31;49.62;;
72736;Laerm;60856;53.238;10.448;2023-05-07T09:51:58;46.59;45.20;49.50;;
72736;Laerm;60856;53.238;10.448;2023-05-07T09:54:24;46.60;45.07;49.73;;
72736;Laerm;60856;53.238;10.448;2023-05-07T09:56:51;46.61;45.27;50.30;;
72736;Laerm;60856;53.238;10.448;2023-05-07T09:59:19;46.60;45.07;49.79;;
72736;Laerm;60856;53.238;10.448;2023-05-07T10:01:47;46.60;45.34;49.67;;
72736;Laerm;60856;53.238;10.448;2023-05-07T10:04:13;46.61;45.40;49.87;;
72736;Laerm;60856;53.238;10.448;2023-05-07T10:06:39;46.59;45.27;49.77;;
72736;Laerm;60856;53.238;10.448;2023-05-07T10:09:05;46.61;45.23;49.70;;
72736;Laerm;60856;53.238;10.448;2023-05-07T10:11:34;46.60;45.23;49.54;;
72736;Laerm;60856;53.238;10.448;2023-05-07T10:14:00;46.60;45.31;49.79;;
72736;Laerm;60856;53.238;10.448;2023-05-07T10:16:36;46.60;45.37;49.71;;
72736;Laerm;60856;53.238;10.448;2023-05-07T10:19:05;46.60;45.38;49.64;;
72736;Laerm;60856;53.238;10.448;2023-05-07T10:21:32;46.62;45.27;49.51;;
72736;Laerm;60856;53.238;10.448;2023-05-07T10:24:04;46.61;44.90;49.72;;
72736;Laerm;60856;53.238;10.448;2023-05-07T10:26:35;46.60;45.09;49.95;;
72736;Laerm;60856;53.238;10.448;2023-05-07T10:29:05;46.61;45.43;49.44;;
72736;Laerm;60856;53.238;10.448;2023-05-07T10:31:43;46.61;45.21;49.71;;
72736;Laerm;60856;53.238;10.448;2023-05-07T10:34:14;46.62;45.24;49.53;;
72736;Laerm;60856;53.238;10.448;2023-05-07T10:36:42;46.61;45.37;49.64;;
72736;Laerm;60856;53.238;10.448;2023-05-07T10:39:08;46.61;45.41;49.90;;
72736;Laerm;60856;53.238;10.448;2023-05-07T10:41:33;46.62;45.18;49.77;;
72736;Laerm;60856;53.238;10.448;2023-05-07T10:43:58;46.59;45.33;49.91;;
72736;Laerm;60856;53.238;10.448;2023-05-07T10:46:26;46.59;45.49;49.66;;
72736;Laerm;60856;53.238;10.448;2023-05-07T10:49:13;46.61;45.18;49.67;;
72736;Laerm;60856;53.238;10.448;2023-05-07T10:51:37;46.60;45.40;49.92;;
72736;Laerm;60856;53.238;10.448;2023-05-07T10:56:34;46.60;45.31;49.38;;
72736;Laerm;60856;53.238;10.448;2023-05-07T10:59:33;46.61;45.39;49.75;;
72736;Laerm;60856;53.238;10.448;2023-05-07T11:04:17;46.61;45.37;49.90;;
72736;Laerm;60856;53.238;10.448;2023-05-07T11:13:00;46.60;45.32;49.65;;
72736;Laerm;60856;53.238;10.448;2023-05-07T11:15:10;46.60;45.33;49.86;;
72736;Laerm;60856;53.238;10.448;2023-05-07T11:20:20;46.63;45.39;50.28;;
72736;Laerm;60856;53.238;10.448;2023-05-07T11:22:45;46.62;45.36;49.56;;
72736;Laerm;60856;53.238;10.448;2023-05-07T11:25:10;46.62;45.26;49.59;;
72736;Laerm;60856;53.238;10.448;2023-05-07T11:27:42;46.64;45.09;49.88;;
72736;Laerm;60856;53.238;10.448;2023-05-07T11:30:08;46.63;45.31;49.64;;
72736;Laerm;60856;53.238;10.448;2023-05-07T11:32:33;46.63;45.42;49.84;;
72736;Laerm;60856;53.238;10.448;2023-05-07T11:34:59;46.64;45.37;50.05;;
72736;Laerm;60856;53.238;10.448;2023-05-07T11:37:25;46.66;45.12;49.47;;
72736;Laerm;60856;53.238;10.448;2023-05-07T11:39:51;46.63;45.27;49.76;;
72736;Laerm;60856;53.238;10.448;2023-05-07T11:42:30;46.62;45.20;50.02;;
72736;Laerm;60856;53.238;10.448;2023-05-07T11:44:56;46.64;45.31;49.98;;
72736;Laerm;60856;53.238;10.448;2023-05-07T11:47:21;46.63;45.38;49.35;;
72736;Laerm;60856;53.238;10.448;2023-05-07T11:49:50;46.65;45.21;49.73;;
72736;Laerm;60856;53.238;10.448;2023-05-07T11:52:16;46.62;45.21;49.43;;
72736;Laerm;60856;53.238;10.448;2023-05-07T11:54:52;46.64;45.33;50.05;;
72736;Laerm;60856;53.238;10.448;2023-05-07T11:57:18;46.64;45.25;49.48;;
72736;Laerm;60856;53.238;10.448;2023-05-07T11:59:44;46.64;45.29;49.91;;
72736;Laerm;60856;53.238;10.448;2023-05-07T12:02:09;46.63;45.37;49.83;;
72736;Laerm;60856;53.238;10.448;2023-05-07T12:04:34;46.64;45.18;49.58;;
72736;Laerm;60856;53.238;10.448;2023-05-07T12:07:00;46.64;45.19;50.02;;
72736;Laerm;60856;53.238;10.448;2023-05-07T12:09:26;46.63;45.19;49.72;;
72736;Laerm;60856;53.238;10.448;2023-05-07T12:11:51;46.64;45.32;49.63;;
72736;Laerm;60856;53.238;10.448;2023-05-07T12:14:16;46.64;45.44;49.74;;
72736;Laerm;60856;53.238;10.448;2023-05-07T12:16:41;46.62;45.38;49.73;;
72736;Laerm;60856;53.238;10.448;2023-05-07T12:19:07;46.63;45.10;50.76;;
72736;Laerm;60856;53.238;10.448;2023-05-07T12:21:37;46.66;45.36;50.09;;
72736;Laerm;60856;53.238;10.448;2023-05-07T12:24:02;46.63;45.25;49.49;;
72736;Laerm;60856;53.238;10.448;2023-05-07T12:26:28;46.64;45.38;49.50;;
72736;Laerm;60856;53.238;10.448;2023-05-07T12:28:53;46.64;45.33;49.95;;
72736;Laerm;60856;53.238;10.448;2023-05-07T12:31:18;46.63;45.37;49.69;;
72736;Laerm;60856;53.238;10.448;2023-05-07T12:33:44;46.65;45.19;49.92;;
72736;Laerm;60856;53.238;10.448;2023-05-07T12:36:11;46.63;44.94;50.27;;
72736;Laerm;60856;53.238;10.448;2023-05-07T12:38:37;46.64;45.28;49.75;;
72736;Laerm;60856;53.238;10.448;2023-05-07T12:41:03;46.65;45.01;49.66;;
72736;Laerm;60856;53.238;10.448;2023-05-07T12:43:29;46.62;45.25;49.49;;
72736;Laerm;60856;53.238;10.448;2023-05-07T12:45:55;46.63;45.16;50.18;;
72736;Laerm;60856;53.238;10.448;2023-05-07T12:48:23;46.63;45.33;49.77;;
72736;Laerm;60856;53.238;10.448;2023-05-07T12:50:49;46.65;45.33;49.86;;
72736;Laerm;60856;53.238;10.448;2023-05-07T12:53:14;46.65;45.38;49.53;;
72736;Laerm;60856;53.238;10.448;2023-05-07T12:55:50;46.64;45.31;49.58;;
72736;Laerm;60856;53.238;10.448;2023-05-07T12:58:36;46.64;45.26;49.67;;
72736;Laerm;60856;53.238;10.448;2023-05-07T13:01:03;46.63;45.16;49.65;;
72736;Laerm;60856;53.238;10.448;2023-05-07T13:03:36;46.65;45.43;49.67;;
72736;Laerm;60856;53.238;10.448;2023-05-07T13:06:03;46.64;45.31;50.59;;
72736;Laerm;60856;53.238;10.448;2023-05-07T13:08:29;46.63;45.20;49.65;;
72736;Laerm;60856;53.238;10.448;2023-05-07T13:10:55;46.64;45.37;49.75;;
72736;Laerm;60856;53.238;10.448;2023-05-07T13:13:20;46.63;45.31;49.80;;
72736;Laerm;60856;53.238;10.448;2023-05-07T13:15:46;46.64;45.25;49.65;;
72736;Laerm;60856;53.238;10.448;2023-05-07T13:18:11;46.66;45.35;49.79;;
72736;Laerm;60856;53.238;10.448;2023-05-07T13:20:37;46.65;45.33;49.59;;
72736;Laerm;60856;53.238;10.448;2023-05-07T13:23:02;46.64;45.30;49.91;;
72736;Laerm;60856;53.238;10.448;2023-05-07T13:25:29;46.64;45.26;49.75;;
72736;Laerm;60856;53.238;10.448;2023-05-07T13:27:54;46.64;45.28;49.85;;
72736;Laerm;60856;53.238;10.448;2023-05-07T13:30:20;46.64;45.39;49.78;;
72736;Laerm;60856;53.238;10.448;2023-05-07T13:32:45;46.63;45.13;50.43;;
72736;Laerm;60856;53.238;10.448;2023-05-07T13:35:12;46.63;45.33;50.15;;
72736;Laerm;60856;53.238;10.448;2023-05-07T13:37:38;46.64;45.03;50.60;;
72736;Laerm;60856;53.238;10.448;2023-05-07T13:40:03;46.64;45.27;49.61;;
72736;Laerm;60856;53.238;10.448;2023-05-07T13:42:29;46.66;45.34;49.82;;
72736;Laerm;60856;53.238;10.448;2023-05-07T13:44:55;46.65;45.07;49.83;;
72736;Laerm;60856;53.238;10.448;2023-05-07T13:47:21;46.63;45.12;50.32;;
72736;Laerm;60856;53.238;10.448;2023-05-07T13:49:47;46.63;45.31;50.05;;
72736;Laerm;60856;53.238;10.448;2023-05-07T13:52:14;46.64;45.27;49.81;;
72736;Laerm;60856;53.238;10.448;2023-05-07T13:54:39;46.63;45.34;49.84;;
72736;Laerm;60856;53.238;10.448;2023-05-07T13:57:05;46.63;45.32;50.74;;
72736;Laerm;60856;53.238;10.448;2023-05-07T13:59:30;46.62;45.24;49.70;;
72736;Laerm;60856;53.238;10.448;2023-05-07T14:01:55;46.63;45.31;49.73;;
72736;Laerm;60856;53.238;10.448;2023-05-07T14:04:21;46.63;45.41;49.36;;
72736;Laerm;60856;53.238;10.448;2023-05-07T14:06:46;46.64;45.41;49.46;;
72736;Laerm;60856;53.238;10.448;2023-05-07T14:09:11;46.64;45.08;49.75;;
72736;Laerm;60856;53.238;10.448;2023-05-07T14:11:38;46.64;45.28;49.67;;
72736;Laerm;60856;53.238;10.448;2023-05-07T14:14:03;46.62;45.26;49.75;;
72736;Laerm;60856;53.238;10.448;2023-05-07T14:16:28;46.64;45.17;50.31;;
72736;Laerm;60856;53.238;10.448;2023-05-07T14:18:54;46.62;45.22;49.83;;
72736;Laerm;60856;53.238;10.448;2023-05-07T14:21:19;46.63;45.37;50.36;;
72736;Laerm;60856;53.238;10.448;2023-05-07T14:23:44;46.63;44.95;49.92;;
72736;Laerm;60856;53.238;10.448;2023-05-07T14:26:10;46.63;45.38;49.55;;
72736;Laerm;60856;53.238;10.448;2023-05-07T14:28:35;46.64;45.35;49.84;;
72736;Laerm;60856;53.238;10.448;2023-05-07T14:31:02;46.65;45.21;49.76;;
72736;Laerm;60856;53.238;10.448;2023-05-07T14:33:27;46.64;45.40;50.46;;
72736;Laerm;60856;53.238;10.448;2023-05-07T14:35:53;46.64;45.25;49.51;;
72736;Laerm;60856;53.238;10.448;2023-05-07T14:38:18;46.63;45.28;49.53;;
72736;Laerm;60856;53.238;10.448;2023-05-07T14:40:44;46.64;45.09;49.62;;
72736;Laerm;60856;53.238;10.448;2023-05-07T14:43:09;46.66;45.03;50.43;;
72736;Laerm;60856;53.238;10.448;2023-05-07T14:45:34;46.63;45.31;49.73;;
72736;Laerm;60856;53.238;10.448;2023-05-07T14:48:00;46.64;45.25;50.06;;
72736;Laerm;60856;53.238;10.448;2023-05-07T14:50:25;46.65;45.35;49.44;;
72736;Laerm;60856;53.238;10.448;2023-05-07T14:52:50;46.63;45.32;50.47;;
72736;Laerm;60856;53.238;10.448;2023-05-07T14:55:15;46.64;45.32;49.63;;
72736;Laerm;60856;53.238;10.448;2023-05-07T14:57:41;46.63;45.39;50.36;;
72736;Laerm;60856;53.238;10.448;2023-05-07T15:00:06;46.63;45.28;49.77;;
72736;Laerm;60856;53.238;10.448;2023-05-07T15:02:32;46.64;45.45;50.25;;
72736;Laerm;60856;53.238;10.448;2023-05-07T15:04:57;46.64;45.27;49.65;;
72736;Laerm;60856;53.238;10.448;2023-05-07T15:07:23;46.65;45.28;49.53;;
72736;Laerm;60856;53.238;10.448;2023-05-07T15:09:48;46.62;45.37;49.48;;
72736;Laerm;60856;53.238;10.448;2023-05-07T15:12:15;46.62;44.99;50.38;;
72736;Laerm;60856;53.238;10.448;2023-05-07T15:14:40;46.64;45.32;49.54;;
72736;Laerm;60856;53.238;10.448;2023-05-07T15:17:06;46.65;45.37;49.70;;
72736;Laerm;60856;53.238;10.448;2023-05-07T15:19:32;46.62;44.96;49.67;;
72736;Laerm;60856;53.238;10.448;2023-05-07T15:21:57;46.61;45.39;49.64;;
72736;Laerm;60856;53.238;10.448;2023-05-07T15:24:24;46.63;45.37;50.20;;
72736;Laerm;60856;53.238;10.448;2023-05-07T15:26:52;46.63;45.17;50.03;;
72736;Laerm;60856;53.238;10.448;2023-05-07T15:29:17;46.61;45.12;49.52;;
72736;Laerm;60856;53.238;10.448;2023-05-07T15:31:43;46.64;45.37;50.64;;
72736;Laerm;60856;53.238;10.448;2023-05-07T15:34:08;46.62;45.34;49.73;;
72736;Laerm;60856;53.238;10.448;2023-05-07T15:36:33;46.65;45.35;50.05;;
72736;Laerm;60856;53.238;10.448;2023-05-07T15:38:58;46.66;45.40;50.29;;
72736;Laerm;60856;53.238;10.448;2023-05-07T15:41:24;46.65;45.37;49.97;;
72736;Laerm;60856;53.238;10.448;2023-05-07T15:43:50;46.65;45.18;49.79;;
72736;Laerm;60856;53.238;10.448;2023-05-07T15:46:19;46.64;45.36;49.47;;
72736;Laerm;60856;53.238;10.448;2023-05-07T15:48:45;46.63;45.44;49.86;;
72736;Laerm;60856;53.238;10.448;2023-05-07T15:51:11;46.63;45.15;50.32;;
72736;Laerm;60856;53.238;10.448;2023-05-07T15:53:37;46.63;45.40;49.77;;
72736;Laerm;60856;53.238;10.448;2023-05-07T15:56:02;46.63;45.26;49.78;;
72736;Laerm;60856;53.238;10.448;2023-05-07T15:58:28;46.63;45.24;49.63;;
72736;Laerm;60856;53.238;10.448;2023-05-07T16:00:53;46.62;45.32;49.69;;
72736;Laerm;60856;53.238;10.448;2023-05-07T16:03:18;46.63;45.44;50.06;;
72736;Laerm;60856;53.238;10.448;2023-05-07T16:05:46;46.62;45.38;49.86;;
72736;Laerm;60856;53.238;10.448;2023-05-07T16:08:11;46.62;45.25;49.86;;
72736;Laerm;60856;53.238;10.448;2023-05-07T16:10:37;46.63;45.32;50.00;;
72736;Laerm;60856;53.238;10.448;2023-05-07T16:13:02;46.63;45.37;49.76;;
72736;Laerm;60856;53.238;10.448;2023-05-07T16:15:27;46.65;45.21;49.67;;
72736;Laerm;60856;53.238;10.448;2023-05-07T16:17:53;46.62;45.33;49.74;;
72736;Laerm;60856;53.238;10.448;2023-05-07T16:20:22;46.61;45.26;49.59;;
72736;Laerm;60856;53.238;10.448;2023-05-07T16:22:47;46.63;45.46;49.41;;
72736;Laerm;60856;53.238;10.448;2023-05-07T16:25:13;46.64;45.34;49.38;;
72736;Laerm;60856;53.238;10.448;2023-05-07T16:27:38;46.62;45.18;50.23;;
72736;Laerm;60856;53.238;10.448;2023-05-07T16:30:04;46.64;45.36;49.54;;
72736;Laerm;60856;53.238;10.448;2023-05-07T16:32:29;46.64;45.43;49.64;;
72736;Laerm;60856;53.238;10.448;2023-05-07T16:34:54;46.64;45.31;49.67;;
72736;Laerm;60856;53.238;10.448;2023-05-07T16:37:20;46.63;44.98;49.54;;
72736;Laerm;60856;53.238;10.448;2023-05-07T16:39:45;46.62;45.04;49.55;;
72736;Laerm;60856;53.238;10.448;2023-05-07T16:42:10;46.64;45.46;49.47;;
72736;Laerm;60856;53.238;10.448;2023-05-07T16:44:35;46.63;45.35;50.25;;
72736;Laerm;60856;53.238;10.448;2023-05-07T16:47:01;46.64;45.49;50.25;;
72736;Laerm;60856;53.238;10.448;2023-05-07T16:49:26;46.63;45.22;49.82;;
72736;Laerm;60856;53.238;10.448;2023-05-07T16:51:51;46.64;45.28;49.78;;
72736;Laerm;60856;53.238;10.448;2023-05-07T16:54:17;46.63;45.18;50.02;;
72736;Laerm;60856;53.238;10.448;2023-05-07T16:56:42;46.64;45.28;49.55;;
72736;Laerm;60856;53.238;10.448;2023-05-07T16:59:08;46.62;45.37;49.96;;
72736;Laerm;60856;53.238;10.448;2023-05-07T17:01:33;46.64;45.40;49.71;;
72736;Laerm;60856;53.238;10.448;2023-05-07T17:03:59;46.62;44.89;49.44;;
72736;Laerm;60856;53.238;10.448;2023-05-07T17:06:24;46.64;45.31;49.77;;
72736;Laerm;60856;53.238;10.448;2023-05-07T17:08:49;46.62;45.27;50.10;;
72736;Laerm;60856;53.238;10.448;2023-05-07T17:11:15;46.62;45.36;49.56;;
72736;Laerm;60856;53.238;10.448;2023-05-07T17:13:40;46.63;45.37;49.53;;
72736;Laerm;60856;53.238;10.448;2023-05-07T17:16:06;46.62;45.27;49.77;;
72736;Laerm;60856;53.238;10.448;2023-05-07T17:18:31;46.61;45.33;49.66;;
72736;Laerm;60856;53.238;10.448;2023-05-07T17:20:56;46.62;45.39;49.75;;